sensor_id;sensor_type;location;lat;lon;timestamp;pressure;altitude;pressure_sealevel;temperature;humidity
76794;BME280;65745;50.278;18.192;2023-02-03T00:00:46;100451.54;;;-0.35;72.28
76794;BME280;65745;50.278;18.192;2023-02-03T00:03:30;100452.83;;;-0.38;72.48
76794;BME280;65745;50.278;18.192;2023-02-03T00:06:00;100452.17;;;-0.40;72.35
76794;BME280;65745;50.278;18.192;2023-02-03T00:08:29;100455.41;;;-0.42;72.31
76794;BME280;65745;50.278;18.192;2023-02-03T00:11:00;100455.85;;;-0.46;72.36
76794;BME280;65745;50.278;18.192;2023-02-03T00:13:29;100455.66;;;-0.49;72.41
76794;BME280;65745;50.278;18.192;2023-02-03T00:15:58;100459.92;;;-0.50;72.20
76794;BME280;65745;50.278;18.192;2023-02-03T00:18:29;100462.92;;;-0.51;72.70
76794;BME280;65745;50.278;18.192;2023-02-03T00:20:59;100466.89;;;-0.48;73.30
76794;BME280;65745;50.278;18.192;2023-02-03T00:23:28;100466.19;;;-0.43;73.81
76794;BME280;65745;50.278;18.192;2023-02-03T00:26:06;100468.17;;;-0.41;73.76
76794;BME280;65745;50.278;18.192;2023-02-03T00:28:35;100467.14;;;-0.41;73.52
76794;BME280;65745;50.278;18.192;2023-02-03T00:31:05;100463.40;;;-0.44;73.30
76794;BME280;65745;50.278;18.192;2023-02-03T00:33:34;100459.73;;;-0.49;73.25
76794;BME280;65745;50.278;18.192;2023-02-03T00:36:08;100463.70;;;-0.52;73.14
76794;BME280;65745;50.278;18.192;2023-02-03T00:38:38;100463.12;;;-0.55;73.26
76794;BME280;65745;50.278;18.192;2023-02-03T00:41:07;100460.90;;;-0.60;73.57
76794;BME280;65745;50.278;18.192;2023-02-03T00:43:36;100462.05;;;-0.65;73.29
76794;BME280;65745;50.278;18.192;2023-02-03T00:46:06;100468.30;;;-0.70;73.64
76794;BME280;65745;50.278;18.192;2023-02-03T00:48:35;100459.71;;;-0.73;73.48
76794;BME280;65745;50.278;18.192;2023-02-03T00:51:05;100458.64;;;-0.75;73.55
76794;BME280;65745;50.278;18.192;2023-02-03T00:53:35;100462.64;;;-0.80;73.91
76794;BME280;65745;50.278;18.192;2023-02-03T00:56:05;100459.41;;;-0.82;73.63
76794;BME280;65745;50.278;18.192;2023-02-03T00:58:39;100449.84;;;-0.88;74.03
76794;BME280;65745;50.278;18.192;2023-02-03T01:01:09;100449.02;;;-0.95;74.75
76794;BME280;65745;50.278;18.192;2023-02-03T01:03:39;100442.66;;;-1.01;74.54
76794;BME280;65745;50.278;18.192;2023-02-03T01:06:13;100443.53;;;-1.03;74.62
76794;BME280;65745;50.278;18.192;2023-02-03T01:08:43;100440.71;;;-1.02;74.65
76794;BME280;65745;50.278;18.192;2023-02-03T01:11:13;100440.66;;;-1.00;75.32
76794;BME280;65745;50.278;18.192;2023-02-03T01:13:44;100438.37;;;-0.95;75.14
76794;BME280;65745;50.278;18.192;2023-02-03T01:16:16;100435.31;;;-0.88;75.27
76794;BME280;65745;50.278;18.192;2023-02-03T01:18:46;100434.42;;;-0.86;75.48
76794;BME280;65745;50.278;18.192;2023-02-03T01:21:16;100434.27;;;-0.72;75.50
76794;BME280;65745;50.278;18.192;2023-02-03T01:23:46;100430.98;;;-0.62;74.72
76794;BME280;65745;50.278;18.192;2023-02-03T01:26:17;100432.63;;;-0.63;74.54
76794;BME280;65745;50.278;18.192;2023-02-03T01:28:52;100432.86;;;-0.64;74.21
76794;BME280;65745;50.278;18.192;2023-02-03T01:31:23;100431.43;;;-0.61;73.97
76794;BME280;65745;50.278;18.192;2023-02-03T01:33:54;100429.13;;;-0.55;73.79
76794;BME280;65745;50.278;18.192;2023-02-03T01:36:25;100426.26;;;-0.57;73.52
76794;BME280;65745;50.278;18.192;2023-02-03T01:38:55;100423.70;;;-0.67;73.55
76794;BME280;65745;50.278;18.192;2023-02-03T01:41:26;100430.80;;;-0.69;73.59
76794;BME280;65745;50.278;18.192;2023-02-03T01:43:58;100430.58;;;-0.72;73.57
76794;BME280;65745;50.278;18.192;2023-02-03T01:46:30;100428.86;;;-0.72;73.42
76794;BME280;65745;50.278;18.192;2023-02-03T01:49:05;100421.19;;;-0.73;73.19
76794;BME280;65745;50.278;18.192;2023-02-03T01:51:38;100415.36;;;-0.77;73.29
76794;BME280;65745;50.278;18.192;2023-02-03T01:54:09;100409.17;;;-0.80;73.05
76794;BME280;65745;50.278;18.192;2023-02-03T01:56:44;100408.50;;;-0.87;73.17
76794;BME280;65745;50.278;18.192;2023-02-03T01:59:17;100407.55;;;-0.91;73.50
76794;BME280;65745;50.278;18.192;2023-02-03T02:01:48;100405.14;;;-0.99;73.32
76794;BME280;65745;50.278;18.192;2023-02-03T02:04:18;100402.43;;;-1.03;73.69
76794;BME280;65745;50.278;18.192;2023-02-03T02:06:50;100398.54;;;-1.06;74.35
76794;BME280;65745;50.278;18.192;2023-02-03T02:09:19;100397.56;;;-1.05;75.04
76794;BME280;65745;50.278;18.192;2023-02-03T02:11:48;100396.80;;;-1.02;75.29
76794;BME280;65745;50.278;18.192;2023-02-03T02:14:17;100389.27;;;-1.03;75.16
76794;BME280;65745;50.278;18.192;2023-02-03T02:16:51;100393.08;;;-1.04;74.89
76794;BME280;65745;50.278;18.192;2023-02-03T02:19:53;100391.04;;;-1.04;74.79
76794;BME280;65745;50.278;18.192;2023-02-03T02:22:32;100388.45;;;-1.00;74.51
76794;BME280;65745;50.278;18.192;2023-02-03T02:25:26;100387.02;;;-0.99;74.40
76794;BME280;65745;50.278;18.192;2023-02-03T02:28:25;100378.16;;;-0.97;74.56
76794;BME280;65745;50.278;18.192;2023-02-03T02:31:12;100366.45;;;-0.98;74.84
76794;BME280;65745;50.278;18.192;2023-02-03T02:33:56;100354.54;;;-1.04;74.74
76794;BME280;65745;50.278;18.192;2023-02-03T02:36:34;100351.13;;;-1.06;75.08
76794;BME280;65745;50.278;18.192;2023-02-03T02:39:11;100348.54;;;-1.03;75.52
76794;BME280;65745;50.278;18.192;2023-02-03T02:41:45;100344.98;;;-0.98;75.93
76794;BME280;65745;50.278;18.192;2023-02-03T02:44:21;100337.85;;;-0.99;76.17
76794;BME280;65745;50.278;18.192;2023-02-03T02:46:52;100332.81;;;-1.00;76.45
76794;BME280;65745;50.278;18.192;2023-02-03T02:49:26;100328.23;;;-0.99;75.84
76794;BME280;65745;50.278;18.192;2023-02-03T02:52:00;100321.88;;;-0.98;75.70
76794;BME280;65745;50.278;18.192;2023-02-03T02:54:32;100323.92;;;-0.95;75.33
76794;BME280;65745;50.278;18.192;2023-02-03T02:57:08;100337.77;;;-0.90;75.28
76794;BME280;65745;50.278;18.192;2023-02-03T02:59:37;100340.42;;;-0.94;75.20
76794;BME280;65745;50.278;18.192;2023-02-03T03:02:10;100344.48;;;-0.96;75.51
76794;BME280;65745;50.278;18.192;2023-02-03T03:04:41;100345.29;;;-0.92;76.03
76794;BME280;65745;50.278;18.192;2023-02-03T03:07:15;100351.84;;;-0.85;76.42
76794;BME280;65745;50.278;18.192;2023-02-03T03:09:48;100358.02;;;-0.77;76.25
76794;BME280;65745;50.278;18.192;2023-02-03T03:12:22;100364.64;;;-0.72;75.89
76794;BME280;65745;50.278;18.192;2023-02-03T03:14:56;100367.86;;;-0.72;75.87
76794;BME280;65745;50.278;18.192;2023-02-03T03:17:36;100357.88;;;-0.74;76.12
76794;BME280;65745;50.278;18.192;2023-02-03T03:20:11;100350.30;;;-0.76;75.74
76794;BME280;65745;50.278;18.192;2023-02-03T03:22:48;100352.09;;;-0.77;75.75
76794;BME280;65745;50.278;18.192;2023-02-03T03:25:25;100346.95;;;-0.78;75.70
76794;BME280;65745;50.278;18.192;2023-02-03T03:28:00;100339.29;;;-0.81;75.83
76794;BME280;65745;50.278;18.192;2023-02-03T03:30:34;100336.73;;;-0.76;76.48
76794;BME280;65745;50.278;18.192;2023-02-03T03:33:05;100328.45;;;-0.69;76.92
76794;BME280;65745;50.278;18.192;2023-02-03T03:35:38;100318.90;;;-0.63;77.15
76794;BME280;65745;50.278;18.192;2023-02-03T03:38:16;100311.09;;;-0.59;76.78
76794;BME280;65745;50.278;18.192;2023-02-03T03:40:50;100303.06;;;-0.58;76.51
76794;BME280;65745;50.278;18.192;2023-02-03T03:43:24;100297.06;;;-0.59;76.26
76794;BME280;65745;50.278;18.192;2023-02-03T03:45:59;100291.69;;;-0.61;76.35
76794;BME280;65745;50.278;18.192;2023-02-03T03:48:33;100284.45;;;-0.63;76.14
76794;BME280;65745;50.278;18.192;2023-02-03T03:51:07;100278.77;;;-0.62;76.47
76794;BME280;65745;50.278;18.192;2023-02-03T03:53:39;100270.54;;;-0.59;76.98
76794;BME280;65745;50.278;18.192;2023-02-03T03:56:13;100270.78;;;-0.55;77.32
76794;BME280;65745;50.278;18.192;2023-02-03T03:58:45;100270.35;;;-0.52;76.92
76794;BME280;65745;50.278;18.192;2023-02-03T04:01:16;100261.24;;;-0.51;76.84
76794;BME280;65745;50.278;18.192;2023-02-03T04:03:47;100255.73;;;-0.50;76.46
76794;BME280;65745;50.278;18.192;2023-02-03T04:06:18;100249.38;;;-0.52;76.80
76794;BME280;65745;50.278;18.192;2023-02-03T04:08:47;100245.25;;;-0.53;76.57
76794;BME280;65745;50.278;18.192;2023-02-03T04:11:16;100238.63;;;-0.53;76.83
76794;BME280;65745;50.278;18.192;2023-02-03T04:13:59;100240.16;;;-0.50;77.18
76794;BME280;65745;50.278;18.192;2023-02-03T04:16:28;100233.02;;;-0.46;77.66
76794;BME280;65745;50.278;18.192;2023-02-03T04:18:58;100227.78;;;-0.38;77.29
76794;BME280;65745;50.278;18.192;2023-02-03T04:21:27;100228.16;;;-0.32;76.94
76794;BME280;65745;50.278;18.192;2023-02-03T04:23:56;100226.15;;;-0.30;76.67
76794;BME280;65745;50.278;18.192;2023-02-03T04:26:25;100224.67;;;-0.29;76.35
76794;BME280;65745;50.278;18.192;2023-02-03T04:28:54;100223.48;;;-0.29;75.97
76794;BME280;65745;50.278;18.192;2023-02-03T04:31:23;100226.06;;;-0.31;76.17
76794;BME280;65745;50.278;18.192;2023-02-03T04:33:52;100222.14;;;-0.34;76.24
76794;BME280;65745;50.278;18.192;2023-02-03T04:36:21;100222.87;;;-0.38;76.17
76794;BME280;65745;50.278;18.192;2023-02-03T04:38:51;100225.02;;;-0.39;76.50
76794;BME280;65745;50.278;18.192;2023-02-03T04:41:20;100232.04;;;-0.35;76.82
76794;BME280;65745;50.278;18.192;2023-02-03T04:43:49;100230.29;;;-0.31;76.56
76794;BME280;65745;50.278;18.192;2023-02-03T04:46:18;100224.16;;;-0.29;76.30
76794;BME280;65745;50.278;18.192;2023-02-03T04:48:47;100215.88;;;-0.29;76.13
76794;BME280;65745;50.278;18.192;2023-02-03T04:51:17;100211.44;;;-0.32;75.73
76794;BME280;65745;50.278;18.192;2023-02-03T04:53:46;100199.11;;;-0.37;75.42
76794;BME280;65745;50.278;18.192;2023-02-03T04:56:15;100191.56;;;-0.41;75.33
76794;BME280;65745;50.278;18.192;2023-02-03T04:58:44;100184.91;;;-0.44;75.60
76794;BME280;65745;50.278;18.192;2023-02-03T05:01:14;100176.86;;;-0.43;75.49
76794;BME280;65745;50.278;18.192;2023-02-03T05:03:43;100175.44;;;-0.44;75.23
76794;BME280;65745;50.278;18.192;2023-02-03T05:06:13;100178.73;;;-0.46;75.02
76794;BME280;65745;50.278;18.192;2023-02-03T05:08:42;100167.08;;;-0.48;74.71
76794;BME280;65745;50.278;18.192;2023-02-03T05:11:11;100153.64;;;-0.52;75.08
76794;BME280;65745;50.278;18.192;2023-02-03T05:13:40;100152.12;;;-0.54;75.00
76794;BME280;65745;50.278;18.192;2023-02-03T05:16:10;100145.36;;;-0.51;75.20
76794;BME280;65745;50.278;18.192;2023-02-03T05:18:38;100143.25;;;-0.47;75.10
76794;BME280;65745;50.278;18.192;2023-02-03T05:21:08;100141.60;;;-0.41;75.35
76794;BME280;65745;50.278;18.192;2023-02-03T05:23:37;100137.98;;;-0.37;74.92
76794;BME280;65745;50.278;18.192;2023-02-03T05:26:06;100124.33;;;-0.37;74.55
76794;BME280;65745;50.278;18.192;2023-02-03T05:28:35;100120.14;;;-0.36;74.46
76794;BME280;65745;50.278;18.192;2023-02-03T05:31:05;100111.98;;;-0.39;74.00
76794;BME280;65745;50.278;18.192;2023-02-03T05:33:34;100108.27;;;-0.36;74.49
76794;BME280;65745;50.278;18.192;2023-02-03T05:36:05;100109.67;;;-0.33;74.83
76794;BME280;65745;50.278;18.192;2023-02-03T05:38:34;100103.72;;;-0.29;74.43
76794;BME280;65745;50.278;18.192;2023-02-03T05:41:04;100096.61;;;-0.26;74.11
76794;BME280;65745;50.278;18.192;2023-02-03T05:43:52;100090.90;;;-0.25;73.73
76794;BME280;65745;50.278;18.192;2023-02-03T05:46:21;100087.21;;;-0.27;73.58
76794;BME280;65745;50.278;18.192;2023-02-03T05:48:50;100082.70;;;-0.31;73.78
76794;BME280;65745;50.278;18.192;2023-02-03T05:51:18;100091.64;;;-0.32;73.87
76794;BME280;65745;50.278;18.192;2023-02-03T05:53:47;100081.87;;;-0.31;73.78
76794;BME280;65745;50.278;18.192;2023-02-03T05:56:16;100080.17;;;-0.24;74.01
76794;BME280;65745;50.278;18.192;2023-02-03T05:58:47;100081.06;;;-0.20;73.18
76794;BME280;65745;50.278;18.192;2023-02-03T06:01:18;100078.00;;;-0.18;73.23
76794;BME280;65745;50.278;18.192;2023-02-03T06:03:47;100084.52;;;-0.14;72.85
76794;BME280;65745;50.278;18.192;2023-02-03T06:06:18;100077.37;;;-0.15;72.44
76794;BME280;65745;50.278;18.192;2023-02-03T06:08:47;100079.84;;;-0.16;71.86
76794;BME280;65745;50.278;18.192;2023-02-03T06:11:18;100073.38;;;-0.16;71.79
76794;BME280;65745;50.278;18.192;2023-02-03T06:13:48;100070.20;;;-0.18;72.09
76794;BME280;65745;50.278;18.192;2023-02-03T06:16:17;100068.24;;;-0.15;72.34
76794;BME280;65745;50.278;18.192;2023-02-03T06:18:46;100069.09;;;-0.09;72.42
76794;BME280;65745;50.278;18.192;2023-02-03T06:21:16;100067.95;;;-0.06;72.16
76794;BME280;65745;50.278;18.192;2023-02-03T06:23:45;100064.83;;;-0.05;71.67
76794;BME280;65745;50.278;18.192;2023-02-03T06:26:15;100058.52;;;-0.05;71.57
76794;BME280;65745;50.278;18.192;2023-02-03T06:28:44;100052.80;;;-0.08;71.23
76794;BME280;65745;50.278;18.192;2023-02-03T06:31:14;100045.18;;;-0.08;71.38
76794;BME280;65745;50.278;18.192;2023-02-03T06:33:44;100040.02;;;-0.09;71.38
76794;BME280;65745;50.278;18.192;2023-02-03T06:36:13;100035.82;;;-0.11;71.53
76794;BME280;65745;50.278;18.192;2023-02-03T06:38:43;100036.75;;;-0.09;71.86
76794;BME280;65745;50.278;18.192;2023-02-03T06:41:12;100036.70;;;-0.08;72.33
76794;BME280;65745;50.278;18.192;2023-02-03T06:43:41;100037.56;;;0.00;72.28
76794;BME280;65745;50.278;18.192;2023-02-03T06:46:10;100036.88;;;0.03;71.79
76794;BME280;65745;50.278;18.192;2023-02-03T06:48:40;100032.11;;;0.06;71.66
76794;BME280;65745;50.278;18.192;2023-02-03T06:51:09;100030.73;;;0.08;71.90
76794;BME280;65745;50.278;18.192;2023-02-03T06:53:38;100029.58;;;0.11;71.65
76794;BME280;65745;50.278;18.192;2023-02-03T06:56:08;100016.29;;;0.07;71.69
76794;BME280;65745;50.278;18.192;2023-02-03T06:58:37;100009.10;;;0.11;71.98
76794;BME280;65745;50.278;18.192;2023-02-03T07:01:06;100004.44;;;0.15;72.59
76794;BME280;65745;50.278;18.192;2023-02-03T07:03:38;100002.50;;;0.19;72.98
76794;BME280;65745;50.278;18.192;2023-02-03T07:06:08;100001.77;;;0.24;72.85
76794;BME280;65745;50.278;18.192;2023-02-03T07:08:37;99999.58;;;0.27;72.05
76794;BME280;65745;50.278;18.192;2023-02-03T07:11:06;99998.48;;;0.28;72.03
76794;BME280;65745;50.278;18.192;2023-02-03T07:13:37;99995.15;;;0.26;72.16
76794;BME280;65745;50.278;18.192;2023-02-03T07:16:05;99997.02;;;0.26;72.37
76794;BME280;65745;50.278;18.192;2023-02-03T07:18:35;99993.63;;;0.26;72.33
76794;BME280;65745;50.278;18.192;2023-02-03T07:21:17;99992.30;;;0.29;72.35
76794;BME280;65745;50.278;18.192;2023-02-03T07:23:47;99991.02;;;0.31;72.83
76794;BME280;65745;50.278;18.192;2023-02-03T07:26:17;99994.05;;;0.33;73.39
76794;BME280;65745;50.278;18.192;2023-02-03T07:28:46;99995.80;;;0.36;73.28
76794;BME280;65745;50.278;18.192;2023-02-03T07:31:16;99991.38;;;0.39;72.85
76794;BME280;65745;50.278;18.192;2023-02-03T07:33:45;99982.45;;;0.37;73.07
76794;BME280;65745;50.278;18.192;2023-02-03T07:36:15;99977.05;;;0.35;73.18
76794;BME280;65745;50.278;18.192;2023-02-03T07:38:44;99973.05;;;0.39;73.67
76794;BME280;65745;50.278;18.192;2023-02-03T07:41:14;99969.14;;;0.44;73.90
76794;BME280;65745;50.278;18.192;2023-02-03T07:43:47;99968.24;;;0.49;73.95
76794;BME280;65745;50.278;18.192;2023-02-03T07:46:17;99967.52;;;0.51;73.88
76794;BME280;65745;50.278;18.192;2023-02-03T07:48:47;99967.26;;;0.50;73.80
76794;BME280;65745;50.278;18.192;2023-02-03T07:51:17;99954.40;;;0.47;74.10
76794;BME280;65745;50.278;18.192;2023-02-03T07:53:47;99953.05;;;0.47;74.95
76794;BME280;65745;50.278;18.192;2023-02-03T07:56:16;99945.27;;;0.47;75.84
76794;BME280;65745;50.278;18.192;2023-02-03T07:58:45;99939.39;;;0.45;77.00
76794;BME280;65745;50.278;18.192;2023-02-03T08:01:15;99935.98;;;0.45;77.46
76794;BME280;65745;50.278;18.192;2023-02-03T08:03:45;99929.54;;;0.39;77.40
76794;BME280;65745;50.278;18.192;2023-02-03T08:06:14;99927.60;;;0.40;76.84
76794;BME280;65745;50.278;18.192;2023-02-03T08:08:43;99921.32;;;0.43;77.04
76794;BME280;65745;50.278;18.192;2023-02-03T08:11:12;99917.39;;;0.49;77.41
76794;BME280;65745;50.278;18.192;2023-02-03T08:13:47;99911.63;;;0.51;78.21
76794;BME280;65745;50.278;18.192;2023-02-03T08:16:16;99902.40;;;0.53;78.30
76794;BME280;65745;50.278;18.192;2023-02-03T08:18:46;99896.34;;;0.51;78.49
76794;BME280;65745;50.278;18.192;2023-02-03T08:21:21;99892.13;;;0.48;78.65
76794;BME280;65745;50.278;18.192;2023-02-03T08:23:57;99886.65;;;0.53;78.97
76794;BME280;65745;50.278;18.192;2023-02-03T08:26:26;99877.08;;;0.57;79.54
76794;BME280;65745;50.278;18.192;2023-02-03T08:28:56;99869.77;;;0.60;80.03
76794;BME280;65745;50.278;18.192;2023-02-03T08:31:25;99863.40;;;0.58;80.24
76794;BME280;65745;50.278;18.192;2023-02-03T08:33:55;99853.17;;;0.54;79.98
76794;BME280;65745;50.278;18.192;2023-02-03T08:36:24;99845.23;;;0.49;80.80
76794;BME280;65745;50.278;18.192;2023-02-03T08:38:53;99832.43;;;0.48;81.23
76794;BME280;65745;50.278;18.192;2023-02-03T08:41:24;99820.90;;;0.47;81.54
76794;BME280;65745;50.278;18.192;2023-02-03T08:43:53;99811.86;;;0.49;82.09
76794;BME280;65745;50.278;18.192;2023-02-03T08:46:24;99802.39;;;0.49;81.77
76794;BME280;65745;50.278;18.192;2023-02-03T08:48:54;99799.08;;;0.39;82.29
76794;BME280;65745;50.278;18.192;2023-02-03T08:51:24;99786.08;;;0.36;82.01
76794;BME280;65745;50.278;18.192;2023-02-03T08:53:54;99785.61;;;0.34;82.89
76794;BME280;65745;50.278;18.192;2023-02-03T08:56:24;99781.67;;;0.34;83.43
76794;BME280;65745;50.278;18.192;2023-02-03T08:58:54;99763.73;;;0.40;83.45
76794;BME280;65745;50.278;18.192;2023-02-03T09:01:25;99760.39;;;0.37;83.51
76794;BME280;65745;50.278;18.192;2023-02-03T09:03:54;99754.05;;;0.39;83.81
76794;BME280;65745;50.278;18.192;2023-02-03T09:06:25;99742.11;;;0.38;83.93
76794;BME280;65745;50.278;18.192;2023-02-03T09:08:54;99726.86;;;0.38;84.05
76794;BME280;65745;50.278;18.192;2023-02-03T09:11:23;99739.77;;;0.38;83.85
76794;BME280;65745;50.278;18.192;2023-02-03T09:13:53;99727.17;;;0.40;83.61
76794;BME280;65745;50.278;18.192;2023-02-03T09:16:25;99731.77;;;0.37;83.85
76794;BME280;65745;50.278;18.192;2023-02-03T09:18:57;99726.07;;;0.38;83.50
76794;BME280;65745;50.278;18.192;2023-02-03T09:21:26;99710.41;;;0.34;83.92
76794;BME280;65745;50.278;18.192;2023-02-03T09:24:09;99708.92;;;0.41;83.81
76794;BME280;65745;50.278;18.192;2023-02-03T09:26:38;99699.66;;;0.48;84.03
76794;BME280;65745;50.278;18.192;2023-02-03T09:29:07;99700.54;;;0.49;83.58
76794;BME280;65745;50.278;18.192;2023-02-03T09:31:37;99696.60;;;0.45;83.70
76794;BME280;65745;50.278;18.192;2023-02-03T09:34:07;99680.73;;;0.49;83.41
76794;BME280;65745;50.278;18.192;2023-02-03T09:36:36;99668.77;;;0.53;83.22
76794;BME280;65745;50.278;18.192;2023-02-03T09:39:05;99663.96;;;0.55;83.75
76794;BME280;65745;50.278;18.192;2023-02-03T09:41:46;99661.16;;;0.54;83.97
76794;BME280;65745;50.278;18.192;2023-02-03T09:44:23;99653.33;;;0.53;83.71
76794;BME280;65745;50.278;18.192;2023-02-03T09:46:57;99645.38;;;0.47;83.85
76794;BME280;65745;50.278;18.192;2023-02-03T09:49:34;99636.29;;;0.42;84.17
76794;BME280;65745;50.278;18.192;2023-02-03T09:52:10;99625.56;;;0.44;84.41
76794;BME280;65745;50.278;18.192;2023-02-03T09:54:43;99622.20;;;0.44;84.04
76794;BME280;65745;50.278;18.192;2023-02-03T09:57:21;99614.36;;;0.43;83.75
76794;BME280;65745;50.278;18.192;2023-02-03T09:59:52;99605.85;;;0.39;83.76
76794;BME280;65745;50.278;18.192;2023-02-03T10:02:33;99603.29;;;0.39;83.90
76794;BME280;65745;50.278;18.192;2023-02-03T10:05:24;99597.21;;;0.36;83.87
76794;BME280;65745;50.278;18.192;2023-02-03T10:08:03;99586.41;;;0.37;83.65
76794;BME280;65745;50.278;18.192;2023-02-03T10:10:39;99578.70;;;0.38;83.21
76794;BME280;65745;50.278;18.192;2023-02-03T10:13:17;99569.55;;;0.39;82.91
76794;BME280;65745;50.278;18.192;2023-02-03T10:16:11;99561.75;;;0.42;83.41
76794;BME280;65745;50.278;18.192;2023-02-03T10:18:56;99552.20;;;0.47;83.62
76794;BME280;65745;50.278;18.192;2023-02-03T10:21:33;99537.38;;;0.49;83.23
76794;BME280;65745;50.278;18.192;2023-02-03T10:24:08;99529.08;;;0.49;82.93
76794;BME280;65745;50.278;18.192;2023-02-03T10:26:50;99524.42;;;0.50;82.84
76794;BME280;65745;50.278;18.192;2023-02-03T10:29:22;99514.90;;;0.56;83.30
76794;BME280;65745;50.278;18.192;2023-02-03T10:31:59;99505.05;;;0.56;83.88
76794;BME280;65745;50.278;18.192;2023-02-03T10:34:28;99496.23;;;0.65;83.37
76794;BME280;65745;50.278;18.192;2023-02-03T10:37:02;99492.02;;;0.69;83.02
76794;BME280;65745;50.278;18.192;2023-02-03T10:39:40;99493.65;;;0.70;83.03
76794;BME280;65745;50.278;18.192;2023-02-03T10:42:13;99484.39;;;0.75;83.25
76794;BME280;65745;50.278;18.192;2023-02-03T10:44:44;99475.59;;;0.78;83.48
76794;BME280;65745;50.278;18.192;2023-02-03T10:47:22;99462.38;;;0.82;83.76
76794;BME280;65745;50.278;18.192;2023-02-03T10:49:54;99452.77;;;0.83;83.29
76794;BME280;65745;50.278;18.192;2023-02-03T10:52:27;99450.33;;;0.88;83.05
76794;BME280;65745;50.278;18.192;2023-02-03T10:54:57;99443.75;;;0.92;83.13
76794;BME280;65745;50.278;18.192;2023-02-03T10:57:28;99430.27;;;0.98;83.41
76794;BME280;65745;50.278;18.192;2023-02-03T11:00:20;99423.60;;;1.04;83.59
76794;BME280;65745;50.278;18.192;2023-02-03T11:03:04;99418.16;;;1.06;83.50
76794;BME280;65745;50.278;18.192;2023-02-03T11:05:34;99405.69;;;1.08;83.39
76794;BME280;65745;50.278;18.192;2023-02-03T11:08:04;99389.25;;;1.15;83.53
76794;BME280;65745;50.278;18.192;2023-02-03T11:10:42;99381.89;;;1.20;83.98
76794;BME280;65745;50.278;18.192;2023-02-03T11:13:19;99363.88;;;1.27;83.89
76794;BME280;65745;50.278;18.192;2023-02-03T11:15:53;99355.11;;;1.32;83.30
76794;BME280;65745;50.278;18.192;2023-02-03T11:18:38;99349.45;;;1.34;83.58
76794;BME280;65745;50.278;18.192;2023-02-03T11:21:12;99345.29;;;1.39;84.05
76794;BME280;65745;50.278;18.192;2023-02-03T11:23:48;99329.80;;;1.46;84.36
76794;BME280;65745;50.278;18.192;2023-02-03T11:26:23;99313.70;;;1.53;83.86
76794;BME280;65745;50.278;18.192;2023-02-03T11:29:01;99306.79;;;1.54;83.45
76794;BME280;65745;50.278;18.192;2023-02-03T11:31:34;99311.33;;;1.57;83.50
76794;BME280;65745;50.278;18.192;2023-02-03T11:34:06;99304.31;;;1.59;83.94
76794;BME280;65745;50.278;18.192;2023-02-03T11:36:43;99291.23;;;1.66;84.23
76794;BME280;65745;50.278;18.192;2023-02-03T11:42:22;99272.92;;;1.71;83.21
76794;BME280;65745;50.278;18.192;2023-02-03T11:44:51;99270.23;;;1.71;83.36
76794;BME280;65745;50.278;18.192;2023-02-03T11:47:20;99266.64;;;1.71;83.33
76794;BME280;65745;50.278;18.192;2023-02-03T11:50:11;99263.92;;;1.75;83.56
76794;BME280;65745;50.278;18.192;2023-02-03T11:52:56;99253.45;;;1.80;83.42
76794;BME280;65745;50.278;18.192;2023-02-03T11:55:37;99241.52;;;1.83;83.07
76794;BME280;65745;50.278;18.192;2023-02-03T12:01:57;99213.58;;;1.88;83.71
76794;BME280;65745;50.278;18.192;2023-02-03T12:04:43;99196.20;;;1.90;84.03
76794;BME280;65745;50.278;18.192;2023-02-03T12:07:33;99182.66;;;1.92;83.62
76794;BME280;65745;50.278;18.192;2023-02-03T12:10:13;99173.33;;;1.92;83.77
76794;BME280;65745;50.278;18.192;2023-02-03T12:12:54;99166.60;;;1.93;83.77
76794;BME280;65745;50.278;18.192;2023-02-03T12:15:33;99155.77;;;1.94;84.23
76794;BME280;65745;50.278;18.192;2023-02-03T12:18:18;99151.47;;;1.97;84.10
76794;BME280;65745;50.278;18.192;2023-02-03T12:21:01;99148.75;;;1.97;83.86
76794;BME280;65745;50.278;18.192;2023-02-03T12:23:41;99145.40;;;1.94;83.69
76794;BME280;65745;50.278;18.192;2023-02-03T12:26:19;99141.45;;;1.97;84.59
76794;BME280;65745;50.278;18.192;2023-02-03T12:28:56;99138.81;;;1.99;84.84
76794;BME280;65745;50.278;18.192;2023-02-03T12:31:34;99136.05;;;1.98;84.79
76794;BME280;65745;50.278;18.192;2023-02-03T12:34:14;99129.02;;;1.92;84.87
76794;BME280;65745;50.278;18.192;2023-02-03T12:36:49;99119.42;;;1.90;85.31
76794;BME280;65745;50.278;18.192;2023-02-03T12:39:25;99111.84;;;1.91;85.35
76794;BME280;65745;50.278;18.192;2023-02-03T12:41:59;99101.50;;;1.96;85.29
76794;BME280;65745;50.278;18.192;2023-02-03T12:44:42;99088.19;;;1.98;85.38
76794;BME280;65745;50.278;18.192;2023-02-03T12:47:19;99077.95;;;2.01;85.75
76794;BME280;65745;50.278;18.192;2023-02-03T12:49:54;99064.86;;;2.05;85.57
76794;BME280;65745;50.278;18.192;2023-02-03T12:52:29;99061.38;;;2.03;85.35
76794;BME280;65745;50.278;18.192;2023-02-03T12:55:13;99047.88;;;2.01;85.41
76794;BME280;65745;50.278;18.192;2023-02-03T12:57:48;99044.43;;;2.04;85.59
76794;BME280;65745;50.278;18.192;2023-02-03T13:00:31;99034.56;;;2.08;85.80
76794;BME280;65745;50.278;18.192;2023-02-03T13:03:10;99028.94;;;2.07;85.11
76794;BME280;65745;50.278;18.192;2023-02-03T13:05:46;99023.70;;;2.04;85.36
76794;BME280;65745;50.278;18.192;2023-02-03T13:08:24;99016.95;;;2.04;85.71
76794;BME280;65745;50.278;18.192;2023-02-03T13:11:02;99008.39;;;2.08;85.99
76794;BME280;65745;50.278;18.192;2023-02-03T13:13:41;98998.10;;;2.09;85.62
76794;BME280;65745;50.278;18.192;2023-02-03T13:16:14;98997.05;;;2.09;85.36
76794;BME280;65745;50.278;18.192;2023-02-03T13:18:48;98989.66;;;2.10;85.53
76794;BME280;65745;50.278;18.192;2023-02-03T13:21:21;98987.33;;;2.11;86.12
76794;BME280;65745;50.278;18.192;2023-02-03T13:23:51;98982.23;;;2.12;86.02
76794;BME280;65745;50.278;18.192;2023-02-03T13:29:37;98965.38;;;2.15;85.59